Time;durP1;ratioP1;P1;durP2;ratioP2;P2;SDS_P1;SDS_P2;PMS_P1;PMS_P2;Temp;Humidity;BMP_temperature;BMP_pressure;BME280_temperature;BME280_humidity;BME280_pressure;Samples;Min_cycle;Max_cycle;Signal;HPM_P1;HPM_P2
2021/12/27 00:02:20;;;;;;;21.97;14.25;;;;;;;-1.73;74.71;101582.64;1655990;85;25811;-61
2021/12/27 00:04:49;;;;;;;22.62;13.10;;;;;;;-1.74;74.53;101588.38;1649080;85;26093;-61
2021/12/27 00:07:15;;;;;;;23.22;12.70;;;;;;;-1.79;74.42;101590.24;1655428;85;25754;-61
2021/12/27 00:09:45;;;;;;;24.18;12.78;;;;;;;-1.82;74.23;101595.61;1675568;84;27487;-61
2021/12/27 00:12:12;;;;;;;19.50;11.68;;;;;;;-1.77;74.60;101591.08;1678250;84;25807;-60
2021/12/27 00:14:38;;;;;;;18.50;11.05;;;;;;;-1.79;74.58;101589.39;1673246;84;25794;-60
2021/12/27 00:17:07;;;;;;;17.05;11.30;;;;;;;-1.83;74.55;101595.63;1644840;86;26768;-60
2021/12/27 00:19:34;;;;;;;21.55;11.33;;;;;;;-1.86;74.55;101588.66;1662260;84;25542;-61
2021/12/27 00:22:00;;;;;;;20.75;10.03;;;;;;;-1.87;74.69;101596.16;1673278;84;27481;-61
2021/12/27 00:24:27;;;;;;;17.92;10.53;;;;;;;-1.90;74.62;101593.61;1679584;84;25912;-60
2021/12/27 00:26:54;;;;;;;19.73;10.30;;;;;;;-1.90;74.71;101591.83;1680922;84;25758;-61
2021/12/27 00:29:22;;;;;;;16.77;10.35;;;;;;;-1.93;74.59;101586.61;1673529;84;26093;-60
2021/12/27 00:31:48;;;;;;;17.35;9.70;;;;;;;-1.97;74.66;101587.60;1672932;84;25853;-61
2021/12/27 00:34:15;;;;;;;15.68;9.43;;;;;;;-1.99;74.64;101588.08;1649881;85;28174;-59
2021/12/27 00:36:42;;;;;;;16.27;10.23;;;;;;;-2.02;74.65;101591.24;1661778;84;25503;-60
2021/12/27 00:39:09;;;;;;;15.85;9.23;;;;;;;-1.96;74.81;101587.14;1663864;85;25745;-61
2021/12/27 00:41:36;;;;;;;18.77;11.08;;;;;;;-1.91;74.88;101588.77;1661269;84;26556;-60
2021/12/27 00:44:04;;;;;;;14.75;9.55;;;;;;;-1.80;75.06;101591.17;1681520;84;25885;-60
2021/12/27 00:46:31;;;;;;;18.17;9.48;;;;;;;-1.78;74.91;101582.75;1675746;84;27420;-60
2021/12/27 00:48:58;;;;;;;17.02;10.38;;;;;;;-1.78;74.73;101576.16;1664078;84;25820;-60
2021/12/27 00:51:26;;;;;;;17.20;10.23;;;;;;;-1.74;74.79;101569.03;1687068;84;25912;-61
2021/12/27 00:53:53;;;;;;;15.72;9.73;;;;;;;-1.71;74.61;101573.39;1674755;84;26108;-59
2021/12/27 00:56:20;;;;;;;16.60;9.88;;;;;;;-1.71;74.48;101568.11;1595797;88;25774;-60
2021/12/27 00:58:48;;;;;;;17.70;9.65;;;;;;;-1.69;74.34;101573.76;1605770;87;29615;-60
2021/12/27 01:01:15;;;;;;;26.37;10.38;;;;;;;-1.74;74.27;101565.95;1649357;85;25953;-60
2021/12/27 01:03:45;;;;;;;19.45;11.12;;;;;;;-1.72;74.49;101571.65;1658081;85;25762;-60
2021/12/27 01:06:12;;;;;;;19.70;10.80;;;;;;;-1.74;74.26;101570.34;1656024;86;26118;-60
2021/12/27 01:08:41;;;;;;;17.75;9.60;;;;;;;-1.73;74.40;101569.45;1668539;84;26040;-61
2021/12/27 01:13:46;;;;;;;16.23;9.23;;;;;;;-1.74;74.10;101554.52;1677962;84;25511;-60
2021/12/27 01:16:17;;;;;;;20.37;10.15;;;;;;;-1.80;73.86;101542.81;1671020;84;25872;-60
2021/12/27 01:18:49;;;;;;;17.98;9.63;;;;;;;-1.94;73.81;101548.42;1646269;85;26782;-60
2021/12/27 01:21:20;;;;;;;12.45;7.97;;;;;;;-1.99;74.20;101547.67;1691263;84;25757;-60
2021/12/27 01:23:49;;;;;;;15.85;9.30;;;;;;;-2.01;74.38;101555.60;1675639;85;27490;-60
2021/12/27 01:26:17;;;;;;;14.30;8.98;;;;;;;-2.05;74.40;101551.32;1681781;83;25539;-60
2021/12/27 01:28:46;;;;;;;13.93;8.15;;;;;;;-2.01;74.71;101544.20;1680224;83;26478;-60
2021/12/27 01:31:15;;;;;;;17.20;9.70;;;;;;;-2.02;74.60;101551.26;1650440;84;26107;-60
2021/12/27 01:33:45;;;;;;;19.62;10.60;;;;;;;-2.08;74.55;101552.70;1638376;85;25863;-60
2021/12/27 01:36:16;;;;;;;15.45;9.33;;;;;;;-2.09;74.72;101552.28;1638377;86;27472;-60
2021/12/27 01:38:48;;;;;;;18.32;9.73;;;;;;;-2.06;75.05;101543.84;1644115;85;25529;-60
2021/12/27 01:41:17;;;;;;;20.45;10.20;;;;;;;-1.99;74.97;101535.81;1636531;86;25865;-60
2021/12/27 01:43:45;;;;;;;20.23;10.50;;;;;;;-1.98;74.76;101541.03;1646082;85;26054;-60
2021/12/27 01:46:23;;;;;;;21.30;10.65;;;;;;;-1.98;74.80;101542.82;1665452;85;25835;-60
2021/12/27 01:49:00;;;;;;;20.32;10.98;;;;;;;-1.96;74.75;101543.62;1690546;84;27413;-60
2021/12/27 01:51:29;;;;;;;16.80;10.65;;;;;;;-1.91;75.27;101545.72;1687543;84;25874;-60
2021/12/27 01:53:58;;;;;;;21.42;10.30;;;;;;;-1.81;75.35;101546.34;1675240;83;25853;-62
2021/12/27 01:56:27;;;;;;;22.45;11.83;;;;;;;-1.73;75.12;101550.98;1667329;86;26175;-60
2021/12/27 01:58:56;;;;;;;21.73;11.38;;;;;;;-1.67;75.17;101552.17;1663112;84;26027;-60
2021/12/27 02:01:25;;;;;;;22.85;10.95;;;;;;;-1.59;75.34;101555.91;1642882;85;27578;-60
2021/12/27 02:03:54;;;;;;;23.50;11.80;;;;;;;-1.52;75.27;101552.20;1643385;85;27288;-60
2021/12/27 02:06:25;;;;;;;24.57;12.47;;;;;;;-1.48;75.13;101550.38;1643710;85;25937;-60
2021/12/27 02:08:54;;;;;;;20.02;11.75;;;;;;;-1.45;74.87;101549.85;1645305;85;26667;-60
2021/12/27 02:11:23;;;;;;;19.02;11.20;;;;;;;-1.44;74.64;101553.34;1642683;85;25809;-58
2021/12/27 02:13:50;;;;;;;18.27;10.65;;;;;;;-1.47;74.35;101552.98;1660185;84;27496;-63
2021/12/27 02:16:22;;;;;;;17.80;11.00;;;;;;;-1.48;74.41;101551.70;1640442;86;25757;-60
2021/12/27 02:18:49;;;;;;;19.95;11.20;;;;;;;-1.46;74.55;101548.11;1670972;84;25461;-59
2021/12/27 02:21:17;;;;;;;16.25;10.53;;;;;;;-1.44;74.41;101555.98;1665418;85;26096;-60
2021/12/27 02:23:45;;;;;;;17.30;10.30;;;;;;;-1.48;73.89;101552.56;1664481;84;25858;-60
2021/12/27 02:26:12;;;;;;;18.62;10.85;;;;;;;-1.53;73.64;101552.26;1659300;85;27485;-60
2021/12/27 02:28:39;;;;;;;19.85;10.23;;;;;;;-1.59;73.63;101552.84;1625197;87;26058;-60
2021/12/27 02:31:07;;;;;;;19.62;11.53;;;;;;;-1.63;73.65;101559.55;1630573;85;25783;-60
2021/12/27 02:33:38;;;;;;;15.13;9.70;;;;;;;-1.65;73.86;101563.53;1654567;85;26148;-59
2021/12/27 02:36:07;;;;;;;20.12;9.78;;;;;;;-1.64;73.97;101562.63;1624463;86;25858;-60
2021/12/27 02:38:39;;;;;;;16.85;9.68;;;;;;;-1.61;74.09;101565.63;1616270;85;27445;-60
2021/12/27 02:41:08;;;;;;;17.98;11.05;;;;;;;-1.68;73.58;101568.91;1677307;84;25705;-61
2021/12/27 02:43:38;;;;;;;22.40;10.30;;;;;;;-1.69;73.96;101567.16;1662227;84;25836;-60
2021/12/27 02:46:09;;;;;;;18.80;11.70;;;;;;;-1.73;73.65;101574.72;1652322;86;26086;-60
2021/12/27 02:48:41;;;;;;;22.50;10.88;;;;;;;-1.71;73.88;101574.24;1648860;86;25809;-60
2021/12/27 02:51:09;;;;;;;20.77;10.80;;;;;;;-1.63;74.35;101578.87;1659826;85;27539;-60
2021/12/27 02:53:39;;;;;;;15.90;10.53;;;;;;;-1.62;73.88;101582.40;1664892;84;25723;-61
2021/12/27 02:56:06;;;;;;;16.75;9.70;;;;;;;-1.65;73.78;101575.87;1661764;84;25458;-61
2021/12/27 02:58:34;;;;;;;19.87;10.10;;;;;;;-1.68;73.68;101578.13;1663736;85;26739;-61
2021/12/27 03:01:12;;;;;;;16.97;10.23;;;;;;;-1.77;73.48;101581.00;1637377;86;25731;-61
2021/12/27 03:03:40;;;;;;;17.90;10.58;;;;;;;-1.81;73.79;101580.64;1633724;87;28262;-61
2021/12/27 03:06:08;;;;;;;15.43;10.70;;;;;;;-1.74;74.14;101580.47;1640159;87;25823;-61
2021/12/27 03:08:37;;;;;;;18.48;10.50;;;;;;;-1.71;74.12;101574.70;1639143;86;25738;-60
2021/12/27 03:11:12;;;;;;;19.62;10.88;;;;;;;-1.66;74.46;101584.22;1638869;85;26090;-61
2021/12/27 03:13:46;;;;;;;17.48;9.90;;;;;;;-1.67;74.06;101581.19;1652596;86;25893;-61
2021/12/27 03:16:15;;;;;;;;;;;;;;;-1.68;74.04;101575.93;1643044;85;28250;-61
2021/12/27 03:18:49;;;;;;;17.07;10.35;;;;;;;-1.70;74.04;101570.70;1637667;85;25944;-59
2021/12/27 03:21:16;;;;;;;19.60;10.10;;;;;;;-1.78;73.77;101569.56;1639713;86;25730;-59
2021/12/27 03:23:46;;;;;;;15.40;9.60;;;;;;;-1.88;73.76;101566.72;1643896;86;26031;-60
2021/12/27 03:26:14;;;;;;;16.32;9.63;;;;;;;-1.90;74.04;101560.17;1657603;84;25854;-60
2021/12/27 03:28:44;;;;;;;17.77;10.05;;;;;;;-1.89;74.03;101566.34;1678651;83;28608;-60
2021/12/27 03:31:11;;;;;;;16.80;8.43;;;;;;;-1.94;74.07;101566.45;1633385;87;25928;-60
2021/12/27 03:33:39;;;;;;;16.73;9.03;;;;;;;-1.93;74.22;101565.52;1639656;86;25936;-60
2021/12/27 03:36:09;;;;;;;21.42;9.83;;;;;;;-1.90;74.32;101561.50;1666141;84;26717;-60
2021/12/27 03:38:40;;;;;;;14.83;9.25;;;;;;;-1.86;74.36;101564.07;1662285;85;25843;-60
2021/12/27 03:41:15;;;;;;;14.65;9.68;;;;;;;-1.84;74.31;101566.23;1681181;84;27523;-61
2021/12/27 03:43:43;;;;;;;16.82;10.43;;;;;;;-1.85;74.36;101563.17;1629675;86;25834;-61
2021/12/27 03:46:12;;;;;;;14.28;8.60;;;;;;;-1.91;74.06;101562.39;1642538;86;25888;-61
2021/12/27 03:48:39;;;;;;;16.32;9.13;;;;;;;-1.94;73.95;101563.81;1641053;86;26680;-61
2021/12/27 03:51:06;;;;;;;14.30;9.15;;;;;;;-1.91;74.25;101566.81;1659165;86;25790;-60
2021/12/27 03:53:41;;;;;;;19.70;9.78;;;;;;;-1.84;74.26;101570.19;1864841;76;25315;-61
2021/12/27 03:56:09;;;;;;;16.30;9.50;;;;;;;-1.89;74.25;101571.14;1829449;77;25787;-61
2021/12/27 03:58:56;;;;;;;13.62;8.70;;;;;;;-1.85;74.46;101582.48;1848985;77;27473;-61
2021/12/27 04:01:17;;;;;;;16.10;9.98;;;;;;;-1.85;74.14;101585.59;1789813;80;26410;-61
2021/12/27 04:03:48;;;;;;;17.60;9.25;;;;;;;-1.90;74.27;101579.95;1791084;80;25767;-61
2021/12/27 04:06:17;;;;;;;15.95;10.38;;;;;;;-1.91;74.20;101582.17;1756133;81;25770;-61
2021/12/27 04:08:47;;;;;;;16.42;10.28;;;;;;;-1.91;74.16;101586.13;1739668;82;26310;-61
2021/12/27 04:11:15;;;;;;;16.87;9.53;;;;;;;-2.02;73.94;101589.48;1758065;80;27475;-61
2021/12/27 04:13:42;;;;;;;15.28;10.95;;;;;;;-2.00;74.38;101592.08;1814824;79;25771;-60
2021/12/27 04:16:09;;;;;;;14.55;9.60;;;;;;;-1.98;74.53;101581.91;1784203;80;25749;-60
2021/12/27 04:18:36;;;;;;;17.52;9.50;;;;;;;-2.00;74.37;101588.98;1814714;79;25907;-61
2021/12/27 04:21:04;;;;;;;18.52;10.32;;;;;;;-2.07;74.18;101597.50;1784325;80;25773;-60
2021/12/27 04:23:31;;;;;;;20.60;10.80;;;;;;;-2.09;74.50;101599.30;1815068;79;27391;-60
2021/12/27 04:26:00;;;;;;;17.52;10.65;;;;;;;-2.05;74.60;101601.41;1779620;80;25768;-61
2021/12/27 04:28:26;;;;;;;21.12;10.82;;;;;;;-2.05;74.50;101601.41;1772522;80;25749;-60
2021/12/27 04:30:55;;;;;;;15.30;8.60;;;;;;;-2.05;74.52;101605.38;1773161;80;25801;-60
2021/12/27 04:33:22;;;;;;;17.62;9.43;;;;;;;-2.10;74.46;101607.22;1772428;80;25755;-60
2021/12/27 04:35:52;;;;;;;12.82;6.47;;;;;;;-2.12;74.49;101602.00;1783784;80;27477;-60
2021/12/27 04:38:19;;;;;;;14.35;8.55;;;;;;;-2.15;74.47;101610.42;1784425;80;26168;-61
2021/12/27 04:40:50;;;;;;;16.95;8.58;;;;;;;-2.25;74.35;101605.35;1784327;80;25748;-59
2021/12/27 04:43:22;;;;;;;13.88;8.13;;;;;;;-2.24;74.61;101607.56;1776445;80;25727;-61
2021/12/27 04:45:52;;;;;;;13.88;8.03;;;;;;;-2.25;74.70;101612.41;1773364;80;25734;-62
2021/12/27 04:48:25;;;;;;;15.43;8.10;;;;;;;-2.29;74.55;101608.97;1744309;80;27497;-61
2021/12/27 04:50:55;;;;;;;13.13;6.90;;;;;;;-2.35;74.88;101607.77;1783845;80;27281;-61
2021/12/27 04:53:23;;;;;;;10.85;6.90;;;;;;;-2.40;74.95;101605.69;1783916;80;25757;-61
2021/12/27 04:55:51;;;;;;;13.13;6.67;;;;;;;-2.44;74.87;101616.75;1763063;81;25802;-61
2021/12/27 04:58:21;;;;;;;11.25;7.20;;;;;;;-2.44;75.02;101617.19;1771622;80;25722;-61
2021/12/27 05:00:49;;;;;;;11.45;6.85;;;;;;;-2.47;75.14;101618.59;1776010;80;27568;-61
2021/12/27 05:03:19;;;;;;;12.65;7.47;;;;;;;-2.49;75.17;101617.27;1776547;80;25838;-61
2021/12/27 05:05:47;;;;;;;10.23;6.45;;;;;;;-2.48;75.19;101608.94;1775735;80;25766;-62
2021/12/27 05:08:14;;;;;;;12.82;6.87;;;;;;;-2.48;75.10;101614.21;1776038;80;25692;-62
2021/12/27 05:10:41;;;;;;;11.40;6.22;;;;;;;-2.51;75.01;101607.24;1775978;80;25706;-62
2021/12/27 05:13:08;;;;;;;10.75;6.58;;;;;;;-2.46;75.40;101611.95;1777181;80;28174;-62
2021/12/27 05:15:38;;;;;;;9.68;5.72;;;;;;;-2.45;75.41;101604.91;1780231;80;25818;-61
2021/12/27 05:18:06;;;;;;;9.55;5.33;;;;;;;-2.47;75.26;101612.00;1780337;79;25793;-62
2021/12/27 05:20:33;;;;;;;9.20;5.40;;;;;;;-2.52;75.24;101616.89;1779871;80;25805;-62
2021/12/27 05:23:02;;;;;;;9.33;5.40;;;;;;;-2.51;75.38;101619.10;1780431;80;25662;-62
2021/12/27 05:25:29;;;;;;;8.85;5.37;;;;;;;-2.44;75.62;101623.34;1780346;80;28157;-62
2021/12/27 05:27:56;;;;;;;9.03;4.85;;;;;;;-2.40;75.22;101624.14;1776559;80;25776;-62
2021/12/27 05:30:23;;;;;;;8.25;5.03;;;;;;;-2.43;75.22;101620.23;1773947;80;25868;-61
2021/12/27 05:32:53;;;;;;;9.43;5.05;;;;;;;-2.47;75.03;101617.27;1782145;80;25771;-62
2021/12/27 05:35:22;;;;;;;9.45;5.17;;;;;;;-2.56;74.96;101615.23;1780508;80;25559;-61
2021/12/27 05:37:51;;;;;;;9.90;4.47;;;;;;;-2.62;75.05;101627.20;1780724;80;27456;-61
2021/12/27 05:40:22;;;;;;;7.83;4.90;;;;;;;-2.59;75.44;101625.83;1780535;80;25774;-62
2021/12/27 05:42:51;;;;;;;9.10;5.30;;;;;;;-2.57;75.29;101618.77;1777311;80;25757;-60
2021/12/27 05:45:19;;;;;;;9.70;5.05;;;;;;;-2.62;75.20;101626.34;1783714;80;25773;-61
2021/12/27 05:47:48;;;;;;;9.15;5.03;;;;;;;-2.65;75.36;101623.33;1783860;80;25831;-61
2021/12/27 05:50:17;;;;;;;7.28;4.55;;;;;;;-2.64;75.47;101617.13;1783920;79;28401;-61
2021/12/27 05:52:43;;;;;;;9.43;4.70;;;;;;;-2.65;75.51;101622.44;1809106;78;25740;-60
2021/12/27 05:55:11;;;;;;;7.30;3.77;;;;;;;-2.74;75.35;101622.19;1766802;80;25793;-60
2021/12/27 05:57:39;;;;;;;7.55;4.50;;;;;;;-2.75;75.66;101618.67;1762165;81;25778;-60
2021/12/27 06:00:10;;;;;;;6.45;4.15;;;;;;;-2.75;75.60;101623.94;1764560;80;25726;-62
2021/12/27 06:02:44;;;;;;;8.05;4.67;;;;;;;-2.75;75.66;101635.79;1772786;80;27895;-61
2021/12/27 06:05:12;;;;;;;10.72;5.12;;;;;;;-2.76;75.55;101630.56;1772979;80;25770;-61
2021/12/27 06:07:39;;;;;;;13.43;5.03;;;;;;;-2.72;75.62;101624.31;1772833;80;25817;-61
2021/12/27 06:10:08;;;;;;;12.90;5.33;;;;;;;-2.70;75.60;101619.47;1772750;80;25771;-61
2021/12/27 06:12:35;;;;;;;16.07;5.10;;;;;;;-2.71;75.42;101627.38;1772881;80;25729;-62
2021/12/27 06:15:05;;;;;;;8.75;4.55;;;;;;;-2.71;75.51;101625.63;1777200;80;28173;-61
2021/12/27 06:17:33;;;;;;;7.00;4.37;;;;;;;-2.64;75.65;101625.50;1783509;80;25733;-62
2021/12/27 06:20:03;;;;;;;7.87;4.15;;;;;;;-2.61;75.58;101626.30;1783800;80;25741;-62
2021/12/27 06:22:30;;;;;;;6.15;3.52;;;;;;;-2.58;75.30;101626.25;1783917;80;25834;-62
2021/12/27 06:25:03;;;;;;;8.73;3.52;;;;;;;-2.57;75.21;101633.26;1783722;80;25749;-62
2021/12/27 06:27:26;;;;;;;7.05;3.95;;;;;;;-2.57;75.23;101641.59;1783672;80;27466;-62
2021/12/27 06:29:53;;;;;;;5.70;3.02;;;;;;;-2.59;75.29;101642.06;1801152;79;26379;-61
2021/12/27 06:32:20;;;;;;;5.85;3.42;;;;;;;-2.60;75.18;101644.31;1786414;80;25701;-60
2021/12/27 06:34:47;;;;;;;9.20;3.12;;;;;;;-2.60;75.10;101643.00;1811721;78;25788;-61
2021/12/27 06:37:14;;;;;;;4.80;3.52;;;;;;;-2.63;75.01;101647.84;1780499;80;25780;-61
2021/12/27 06:39:40;;;;;;;7.25;4.15;;;;;;;-2.64;75.20;101652.69;1774035;80;28160;-61
2021/12/27 06:42:11;;;;;;;8.03;3.17;;;;;;;-2.62;75.21;101650.05;1777033;80;25792;-61
2021/12/27 06:44:41;;;;;;;7.05;4.53;;;;;;;-2.63;75.00;101652.27;1772545;80;25710;-62
2021/12/27 06:47:08;;;;;;;9.83;5.00;;;;;;;-2.65;75.12;101664.16;1773090;80;25721;-61
2021/12/27 06:49:37;;;;;;;8.33;3.55;;;;;;;-2.59;75.33;101671.94;1772649;80;26299;-62
2021/12/27 06:52:05;;;;;;;6.55;3.60;;;;;;;-2.62;75.02;101660.13;1772529;80;27540;-61
2021/12/27 06:54:32;;;;;;;5.67;3.42;;;;;;;-2.67;75.04;101653.63;1775205;79;25830;-61
2021/12/27 06:57:00;;;;;;;7.17;3.70;;;;;;;-2.67;75.17;101653.63;1779779;80;25747;-61
2021/12/27 06:59:28;;;;;;;9.05;4.40;;;;;;;-2.64;75.26;101646.11;1779203;80;26007;-61
2021/12/27 07:01:56;;;;;;;7.60;3.72;;;;;;;-2.66;75.10;101653.20;1775741;80;25813;-61
2021/12/27 07:04:23;;;;;;;12.70;4.15;;;;;;;-2.68;75.01;101642.67;1775843;80;27508;-61
2021/12/27 07:06:50;;;;;;;8.38;4.53;;;;;;;-2.70;75.19;101639.22;1775646;80;25658;-61
2021/12/27 07:09:17;;;;;;;8.38;4.28;;;;;;;-2.67;74.92;101640.92;1775783;80;25446;-61
2021/12/27 07:11:44;;;;;;;9.78;3.80;;;;;;;-2.68;74.95;101644.45;1777028;80;25881;-61
2021/12/27 07:14:11;;;;;;;7.67;4.00;;;;;;;-2.61;75.03;101644.74;1781259;80;25749;-61
2021/12/27 07:16:40;;;;;;;12.05;5.00;;;;;;;-2.54;75.10;101645.03;1781369;80;26721;-61
2021/12/27 07:19:08;;;;;;;10.82;4.80;;;;;;;-2.50;75.16;101637.94;1781655;80;25820;-62
2021/12/27 07:21:35;;;;;;;9.60;4.35;;;;;;;-2.44;75.05;101640.47;1781548;80;25492;-61
2021/12/27 07:24:03;;;;;;;6.65;3.65;;;;;;;-2.42;74.98;101642.59;1780969;80;27362;-61
2021/12/27 07:26:30;;;;;;;6.85;4.03;;;;;;;-2.42;74.84;101639.11;1781471;80;25726;-61
2021/12/27 07:28:57;;;;;;;9.55;4.42;;;;;;;-2.41;74.73;101643.48;1781798;80;28184;-61
2021/12/27 07:31:25;;;;;;;12.00;4.78;;;;;;;-2.41;74.81;101649.60;1781220;80;25767;-60
2021/12/27 07:33:52;;;;;;;8.95;4.58;;;;;;;-2.41;74.64;101655.34;1781138;80;25708;-61
2021/12/27 07:36:19;;;;;;;6.92;3.72;;;;;;;-2.36;74.79;101650.83;1781405;80;25739;-61
2021/12/27 07:38:48;;;;;;;7.80;4.03;;;;;;;-2.37;74.69;101647.77;1781602;80;25796;-61
2021/12/27 07:41:15;;;;;;;10.40;4.78;;;;;;;-2.37;74.50;101655.68;1780230;80;27470;-61
2021/12/27 07:43:42;;;;;;;9.98;4.62;;;;;;;-2.40;74.33;101644.76;1775835;80;25813;-61
2021/12/27 07:46:09;;;;;;;8.35;3.95;;;;;;;-2.34;74.46;101645.55;1775548;80;25651;-61
2021/12/27 07:48:36;;;;;;;6.55;3.60;;;;;;;-2.31;74.30;101641.08;1775539;80;25508;-61
2021/12/27 07:51:04;;;;;;;14.05;4.00;;;;;;;-2.28;74.36;101630.45;1777090;80;25730;-61
2021/12/27 07:53:31;;;;;;;10.75;4.03;;;;;;;-2.25;74.22;101622.95;1774918;80;27511;-61
2021/12/27 07:56:00;;;;;;;7.90;3.17;;;;;;;-2.19;74.21;101630.72;1772502;80;25802;-61
2021/12/27 07:58:29;;;;;;;7.85;4.15;;;;;;;-2.08;74.27;101635.31;1772061;80;25782;-61
2021/12/27 08:00:56;;;;;;;9.03;4.75;;;;;;;-1.99;74.05;101625.46;1774620;80;25659;-61
2021/12/27 08:03:22;;;;;;;6.80;4.15;;;;;;;-1.93;74.06;101627.48;1775743;80;25718;-61
2021/12/27 08:05:49;;;;;;;6.75;3.65;;;;;;;-1.86;74.01;101628.69;1775858;80;27498;-61
2021/12/27 08:08:18;;;;;;;11.25;4.85;;;;;;;-1.81;73.96;101632.08;1773920;80;27318;-61
2021/12/27 08:10:47;;;;;;;7.75;4.40;;;;;;;-1.84;73.54;101622.94;1771632;80;25676;-59
2021/12/27 08:13:13;;;;;;;8.65;5.22;;;;;;;-1.87;73.00;101620.36;1772519;80;25822;-60
2021/12/27 08:15:40;;;;;;;7.60;3.75;;;;;;;-1.94;73.17;101616.55;1777401;79;25843;-60
2021/12/27 08:18:07;;;;;;;8.13;3.87;;;;;;;-1.99;72.93;101619.73;1782890;80;27579;-61
2021/12/27 08:20:34;;;;;;;8.98;5.20;;;;;;;-1.97;73.04;101627.16;1783484;80;26054;-61
2021/12/27 08:23:01;;;;;;;14.47;4.12;;;;;;;-1.98;73.12;101634.65;1781895;80;25643;-61
2021/12/27 08:25:28;;;;;;;6.78;3.50;;;;;;;-1.92;73.15;101632.33;1772982;80;25731;-60
2021/12/27 08:27:54;;;;;;;8.25;3.55;;;;;;;-1.97;72.92;101625.84;1772858;80;25875;-61
2021/12/27 08:30:21;;;;;;;7.67;3.47;;;;;;;-1.95;72.73;101627.11;1773717;80;27441;-61
2021/12/27 08:32:48;;;;;;;6.37;4.17;;;;;;;-1.96;72.73;101614.83;1783533;80;25757;-61
2021/12/27 08:35:17;;;;;;;10.45;3.72;;;;;;;-1.98;72.77;101617.51;1814310;79;25736;-61
2021/12/27 08:37:44;;;;;;;7.40;3.75;;;;;;;-1.92;72.73;101620.00;1782927;80;25730;-60
2021/12/27 08:40:14;;;;;;;9.85;5.05;;;;;;;-1.89;72.77;101609.85;1796232;79;25780;-61
2021/12/27 08:42:41;;;;;;;7.87;4.75;;;;;;;-1.91;72.62;101609.02;1781101;80;28374;-61
2021/12/27 08:45:10;;;;;;;7.60;4.72;;;;;;;-1.96;72.57;101613.08;1775489;80;25672;-61
2021/12/27 08:47:39;;;;;;;7.00;4.33;;;;;;;-1.93;72.79;101606.85;1784446;79;25787;-61
2021/12/27 08:50:08;;;;;;;10.20;4.95;;;;;;;-1.84;73.03;101596.09;1780262;80;25832;-61
2021/12/27 08:52:35;;;;;;;7.58;4.58;;;;;;;-1.78;72.82;101601.67;1755837;80;25830;-60
2021/12/27 08:55:03;;;;;;;12.40;6.20;;;;;;;-1.69;72.93;101601.89;1760514;80;27490;-61
2021/12/27 08:57:32;;;;;;;9.23;5.83;;;;;;;-1.62;72.70;101600.87;1793472;79;25776;-60
2021/12/27 09:00:01;;;;;;;13.38;6.37;;;;;;;-1.56;72.64;101600.70;1778180;80;25705;-61
2021/12/27 09:02:28;;;;;;;12.88;5.80;;;;;;;-1.53;72.26;101605.03;1773965;80;25721;-61
2021/12/27 09:04:55;;;;;;;10.30;5.65;;;;;;;-1.49;71.92;101590.88;1783183;80;25647;-61
2021/12/27 09:07:24;;;;;;;10.45;5.12;;;;;;;-1.52;71.68;101586.98;1785017;80;28089;-61
2021/12/27 09:09:54;;;;;;;9.78;5.62;;;;;;;-1.54;71.85;101588.78;1784708;80;25725;-61
2021/12/27 09:12:21;;;;;;;12.33;5.50;;;;;;;-1.59;71.39;101587.14;1784733;80;25830;-61
2021/12/27 09:14:48;;;;;;;7.97;5.30;;;;;;;-1.58;71.62;101581.40;1785680;80;25496;-61
2021/12/27 09:17:16;;;;;;;12.75;5.95;;;;;;;-1.59;71.41;101572.63;1789948;80;25793;-61
2021/12/27 09:19:43;;;;;;;12.20;5.87;;;;;;;-1.54;71.56;101575.59;1789671;80;27476;-61
2021/12/27 09:22:13;;;;;;;10.23;5.97;;;;;;;-1.53;71.29;101570.30;1789317;80;26046;-61
2021/12/27 09:24:40;;;;;;;11.20;6.45;;;;;;;-1.60;71.12;101563.41;1785356;80;25917;-61
2021/12/27 09:27:08;;;;;;;20.85;11.18;;;;;;;-1.59;71.28;101557.23;1784520;80;25896;-61
2021/12/27 09:29:35;;;;;;;15.95;6.00;;;;;;;-1.53;71.51;101554.89;1754497;80;25983;-61
2021/12/27 09:32:04;;;;;;;13.25;6.10;;;;;;;-1.47;71.28;101552.09;1781808;80;28207;-61
2021/12/27 09:34:34;;;;;;;10.35;5.62;;;;;;;-1.47;71.21;101551.66;1787640;80;25837;-61
2021/12/27 09:37:04;;;;;;;11.48;5.12;;;;;;;-1.43;71.27;101557.72;1787341;80;25762;-61
2021/12/27 09:39:32;;;;;;;11.53;6.33;;;;;;;-1.45;70.51;101549.85;1787698;80;26082;-61
2021/12/27 09:42:00;;;;;;;10.70;5.75;;;;;;;-1.43;71.04;101548.48;1787052;80;25810;-61
2021/12/27 09:44:27;;;;;;;10.35;6.10;;;;;;;-1.33;71.16;101551.30;1784934;80;28319;-61
2021/12/27 09:46:55;;;;;;;10.15;6.33;;;;;;;-1.20;71.01;101538.63;1789023;80;25702;-61
2021/12/27 09:49:29;;;;;;;13.15;6.10;;;;;;;-1.18;70.84;101544.74;1789833;80;25665;-61
2021/12/27 09:51:54;;;;;;;12.98;5.92;;;;;;;-1.15;70.63;101541.15;1789097;80;26075;-61
2021/12/27 09:54:21;;;;;;;13.50;7.03;;;;;;;-1.13;70.62;101544.62;1789272;79;25821;-61
2021/12/27 09:56:48;;;;;;;15.85;6.37;;;;;;;-1.10;70.58;101541.87;1788162;80;27533;-61
2021/12/27 09:59:15;;;;;;;12.03;6.55;;;;;;;-1.06;70.32;101546.18;1789421;80;25741;-60
2021/12/27 10:01:42;;;;;;;13.30;6.65;;;;;;;-1.05;69.99;101545.27;1792095;79;25729;-61
2021/12/27 10:04:11;;;;;;;20.95;8.30;;;;;;;-1.03;70.10;101546.07;1791934;79;25791;-61
2021/12/27 10:06:38;;;;;;;13.68;5.42;;;;;;;-0.98;70.48;101540.22;1765411;80;25682;-61
2021/12/27 10:09:06;;;;;;;10.53;6.08;;;;;;;-0.87;70.69;101546.98;1791905;80;28276;-61
2021/12/27 10:11:37;;;;;;;18.73;8.48;;;;;;;-0.80;70.35;101537.97;1791876;80;25816;-61
2021/12/27 10:14:14;;;;;;;12.40;6.65;;;;;;;-0.80;70.00;101534.86;1791662;80;25813;-61
2021/12/27 10:16:46;;;;;;;18.80;8.43;;;;;;;-0.77;69.89;101536.57;1791835;79;25816;-60
2021/12/27 10:19:16;;;;;;;13.38;6.62;;;;;;;-0.80;69.58;101528.25;1791868;80;25774;-61
2021/12/27 10:21:47;;;;;;;14.25;6.35;;;;;;;-0.82;69.17;101529.22;1791911;80;26856;-61
2021/12/27 10:24:18;;;;;;;45.85;23.45;;;;;;;-0.97;68.65;101527.88;1794048;79;25778;-61
2021/12/27 10:26:52;;;;;;;14.35;7.00;;;;;;;-0.95;69.33;101515.06;1795829;78;26309;-61
2021/12/27 10:29:32;;;;;;;22.05;8.43;;;;;;;-0.98;69.00;101509.85;1795386;79;25733;-61
2021/12/27 10:32:10;;;;;;;12.25;5.53;;;;;;;-1.00;69.25;101514.77;1792800;79;25793;-61
2021/12/27 10:34:45;;;;;;;14.87;5.40;;;;;;;-1.05;69.23;101508.73;1791681;80;27463;-61
2021/12/27 10:37:29;;;;;;;11.10;5.15;;;;;;;-1.08;69.15;101503.56;1791869;80;25713;-61
2021/12/27 10:40:02;;;;;;;14.03;6.55;;;;;;;-1.19;68.90;101491.96;1791912;80;25532;-60
2021/12/27 10:42:50;;;;;;;9.45;5.33;;;;;;;-1.33;69.22;101489.27;1744053;80;26324;-60
2021/12/27 10:45:21;;;;;;;9.33;5.20;;;;;;;-1.34;69.58;101482.25;1772537;80;25718;-62
2021/12/27 10:47:54;;;;;;;12.25;5.12;;;;;;;-1.27;69.82;101489.55;1809308;78;27463;-62
2021/12/27 10:50:28;;;;;;;6.62;4.30;;;;;;;-1.23;69.60;101477.13;1773380;80;25733;-62
2021/12/27 10:53:02;;;;;;;;;;;;;;;-1.29;69.51;101475.05;1793957;80;25851;-61
2021/12/27 10:55:46;;;;;;;9.70;4.35;;;;;;;-1.35;69.45;101480.52;1753637;79;25501;-62
2021/12/27 10:58:28;;;;;;;7.15;4.10;;;;;;;-1.46;69.83;101472.02;1758236;81;25739;-62
2021/12/27 11:01:03;;;;;;;9.73;4.80;;;;;;;-1.47;69.94;101475.13;1771829;80;27834;-63
2021/12/27 11:03:41;;;;;;;12.33;5.25;;;;;;;-1.42;70.18;101473.67;1771887;80;25756;-61
2021/12/27 11:06:11;;;;;;;10.85;5.37;;;;;;;-1.35;70.42;101475.23;1763160;80;25743;-61
2021/12/27 11:08:42;;;;;;;12.33;5.78;;;;;;;-1.23;70.46;101457.33;1802105;79;25706;-60
2021/12/27 11:11:10;;;;;;;8.25;4.70;;;;;;;-1.13;70.37;101454.84;1805676;79;25805;-61
2021/12/27 11:13:37;;;;;;;10.08;5.22;;;;;;;-1.05;70.72;101446.67;1779845;80;27478;-61
2021/12/27 11:16:05;;;;;;;10.15;5.25;;;;;;;-1.00;70.34;101450.06;1779991;80;25880;-61
2021/12/27 11:18:34;;;;;;;7.50;3.72;;;;;;;-0.94;70.48;101443.27;1771060;80;25778;-61
2021/12/27 11:21:06;;;;;;;6.87;3.85;;;;;;;-0.98;69.98;101438.54;1781411;80;27563;-61
2021/12/27 11:23:33;;;;;;;9.60;4.50;;;;;;;-0.99;70.25;101446.52;1774783;80;25769;-60
2021/12/27 11:26:11;;;;;;;7.30;3.55;;;;;;;-0.93;69.65;101437.08;1771456;80;27439;-61
2021/12/27 11:28:42;;;;;;;5.40;4.00;;;;;;;-0.96;69.71;101435.84;1772688;80;25770;-61
2021/12/27 11:31:25;;;;;;;6.97;3.45;;;;;;;-0.92;69.62;101433.53;1776096;80;25706;-61